| time (UTC) | temp F | wind direction | speed knots | gust knots | rain 1hr in | rain 24hr in | rain mn in | humidity % | barometer mb |
| 20260508014520 | 64 | 239 | 0.9 | 6.1 | 0.00 | 0.00 | 0.00 | 9 | 1012.6 |
| 20260508013011 | 65 | 254 | 2.6 | 6.1 | 0.00 | 0.00 | 0.00 | 9 | 1012.5 |
| 20260508011514 | 67 | 264 | 3.5 | 7.8 | 0.00 | 0.00 | 0.00 | 9 | 1012.6 |
| 20260508010010 | 68 | 236 | 0.9 | 8.7 | 0.00 | 0.00 | 0.00 | 9 | 1012.6 |
| 20260508004509 | 68 | 288 | 4.3 | 8.7 | 0.00 | 0.00 | 0.00 | 8 | 1012.6 |
| 20260508003008 | 69 | 277 | 2.6 | 9.6 | 0.00 | 0.00 | 0.00 | 9 | 1012.7 |
| 20260508001522 | 69 | 297 | 2.6 | 7.8 | 0.00 | 0.00 | 0.00 | 9 | 1012.9 |
| 20260508000007 | 69 | 304 | 2.6 | 7.0 | 0.00 | 0.00 | 0.00 | 9 | 1013.0 |
| 20260507234505 | 69 | 281 | 4.3 | 10.4 | 0.00 | 0.00 | 0.00 | 10 | 1013.1 |
| 20260507233009 | 69 | 261 | 4.3 | 9.6 | 0.00 | 0.00 | 0.00 | 11 | 1013.2 |
| 20260507231509 | 69 | 277 | 1.7 | 11.3 | 0.00 | 0.00 | 0.00 | 12 | 1013.2 |
| 20260507230006 | 70 | 281 | 3.5 | 10.4 | 0.00 | 0.00 | 0.00 | 13 | 1013.3 |
| 20260507224603 | 69 | 277 | 2.6 | 11.3 | 0.00 | 0.00 | 0.00 | 15 | 1013.5 |
| 20260507223100 | 69 | 298 | 2.6 | 10.4 | 0.00 | 0.00 | 0.00 | 15 | 1013.5 |
| 20260507221557 | 70 | 300 | 3.5 | 11.3 | 0.00 | 0.00 | 0.00 | 16 | 1013.9 |
| 20260507220056 | 70 | 270 | 5.2 | 12.2 | 0.00 | 0.00 | 0.00 | 16 | 1014.1 |
| 20260507214556 | 69 | 197 | 3.5 | 12.2 | 0.00 | 0.00 | 0.00 | 16 | 1014.4 |
| 20260507213056 | 69 | 227 | 3.5 | 10.4 | 0.00 | 0.00 | 0.00 | 16 | 1014.8 |
| 20260507211553 | 69 | 306 | 5.2 | 11.3 | 0.00 | 0.00 | 0.00 | 12 | 1015.1 |
| 20260507210048 | 69 | 297 | 4.3 | 11.3 | 0.00 | 0.00 | 0.00 | 13 | 1015.3 |
| 20260507204545 | 68 | 253 | 4.3 | 13.0 | 0.00 | 0.00 | 0.00 | 13 | 1015.5 |
| 20260507203042 | 68 | 230 | 5.2 | 13.0 | 0.00 | 0.00 | 0.00 | 10 | 1015.8 |
| 20260507201546 | 68 | 322 | 6.1 | 12.2 | 0.00 | 0.00 | 0.00 | 10 | 1016.0 |
| 20260507200042 | 67 | 317 | 5.2 | 12.2 | 0.00 | 0.00 | 0.00 | 11 | 1016.1 |
| 20260507194536 | 66 | 267 | 7.0 | 16.5 | 0.00 | 0.00 | 0.00 | 9 | 1016.5 |
| 20260507193039 | 66 | 309 | 7.0 | 13.0 | 0.00 | 0.00 | 0.00 | 9 | 1016.5 |
| 20260507191532 | 66 | 277 | 6.1 | 13.0 | 0.00 | 0.00 | 0.00 | 10 | 1016.7 |
| 20260507190029 | 65 | 288 | 7.0 | 14.8 | 0.00 | 0.00 | 0.00 | 12 | 1016.8 |
| 20260507184526 | 64 | 292 | 6.1 | 13.0 | 0.00 | 0.00 | 0.00 | 13 | 1017.1 |
| 20260507183023 | 63 | 295 | 7.8 | 13.9 | 0.00 | 0.00 | 0.00 | 14 | 1017.1 |
| 20260507181520 | 63 | 288 | 5.2 | 13.9 | 0.00 | 0.00 | 0.00 | 17 | 1017.2 |
| 20260507180034 | 62 | 309 | 8.7 | 16.5 | 0.00 | 0.00 | 0.00 | 19 | 1017.2 |
| 20260507174516 | 60 | 312 | 7.8 | 13.9 | 0.00 | 0.00 | 0.00 | 23 | 1017.4 |
| 20260507173011 | 59 | 279 | 7.0 | 14.8 | 0.00 | 0.00 | 0.00 | 26 | 1017.7 |
| 20260507171503 | 57 | 275 | 6.1 | 11.3 | 0.00 | 0.00 | 0.00 | 31 | 1018.1 |
| 20260507170059 | 55 | 273 | 7.0 | 12.2 | 0.00 | 0.00 | 0.00 | 34 | 1018.3 |
| 20260507164554 | 53 | 294 | 7.8 | 13.0 | 0.00 | 0.00 | 0.00 | 37 | 1018.2 |
| 20260507163050 | 53 | 296 | 6.1 | 12.2 | 0.00 | 0.00 | 0.00 | 39 | 1018.7 |
| 20260507161551 | 52 | 304 | 7.0 | 10.4 | 0.00 | 0.00 | 0.00 | 40 | 1019.2 |
| 20260507160042 | 52 | 306 | 4.3 | 9.6 | 0.00 | 0.00 | 0.00 | 43 | 1019.1 |
| 20260507154542 | 51 | 311 | 6.1 | 11.3 | 0.00 | 0.00 | 0.00 | 41 | 1019.3 |
| 20260507153033 | 50 | 293 | 4.3 | 7.8 | 0.00 | 0.00 | 0.00 | 44 | 1019.4 |
| 20260507151529 | 49 | 256 | 2.6 | 7.8 | 0.00 | 0.00 | 0.00 | 52 | 1019.4 |
| 20260507150024 | 47 | 267 | 3.5 | 6.1 | 0.00 | 0.00 | 0.00 | 56 | 1019.5 |
| 20260507144520 | 45 | 269 | 2.6 | 7.0 | 0.00 | 0.00 | 0.00 | 65 | 1019.7 |
| 20260507143016 | 44 | 201 | 1.7 | 5.2 | 0.00 | 0.00 | 0.00 | 68 | 1019.8 |
| 20260507141512 | 42 | 71 | 1.7 | 6.1 | 0.00 | 0.00 | 0.00 | 70 | 1019.9 |
| 20260507140008 | 40 | 71 | 0.0 | 3.5 | 0.00 | 0.00 | 0.00 | 76 | 1020.2 |
| 20260507134507 | 38 | 71 | 0.0 | 3.5 | 0.00 | 0.00 | 0.00 | 79 | 1020.3 |
| 20260507133100 | 36 | 71 | 0.9 | 2.6 | 0.00 | 0.00 | 0.00 | 87 | 1020.3 |
| 20260507131555 | 34 | 71 | 0.0 | 1.7 | 0.00 | 0.00 | 0.00 | 89 | 1020.4 |
| 20260507124555 | 31 | 71 | 0.9 | 2.6 | 0.00 | 0.00 | 0.00 | 87 | 1020.5 |
| 20260507123042 | 30 | 71 | 0.9 | 2.6 | 0.00 | 0.00 | 0.00 | 87 | 1020.4 |
| 20260507121540 | 30 | 71 | 1.7 | 3.5 | 0.00 | 0.00 | 0.00 | 88 | 1020.4 |
| 20260507120039 | 29 | 71 | 1.7 | 3.5 | 0.00 | 0.00 | 0.00 | 88 | 1020.5 |
| 20260507114538 | 29 | 71 | 0.9 | 3.5 | 0.00 | 0.00 | 0.00 | 88 | 1020.4 |
| 20260507113035 | 29 | 71 | 0.0 | 1.7 | 0.00 | 0.00 | 0.00 | 88 | 1020.5 |
| 20260507111534 | 29 | 71 | 0.0 | 1.7 | 0.00 | 0.00 | 0.00 | 87 | 1020.4 |
| 20260507110035 | 29 | 71 | 0.0 | 2.6 | 0.00 | 0.00 | 0.00 | 87 | 1020.6 |
| 20260507104531 | 30 | 71 | 0.9 | 2.6 | 0.00 | 0.00 | 0.00 | 87 | 1020.5 |
| 20260507103031 | 31 | 71 | 0.0 | 0.0 | 0.00 | 0.00 | 0.00 | 86 | 1020.6 |
| 20260507101526 | 31 | 71 | 0.0 | 0.0 | 0.00 | 0.00 | 0.00 | 85 | 1020.6 |
| 20260507100024 | 32 | 71 | 0.0 | 0.0 | 0.00 | 0.00 | 0.00 | 84 | 1020.5 |
| 20260507094522 | 33 | 71 | 0.0 | 0.0 | 0.00 | 0.00 | 0.00 | 82 | 1020.7 |
| 20260507093018 | 33 | 71 | 0.0 | 0.9 | 0.00 | 0.00 | 0.00 | 80 | 1020.6 |
| 20260507091519 | 34 | 71 | 0.0 | 1.7 | 0.00 | 0.00 | 0.00 | 81 | 1020.4 |
| 20260507090013 | 35 | 71 | 0.0 | 3.5 | 0.00 | 0.00 | 0.00 | 82 | 1020.5 |
| 20260507084533 | 35 | 71 | 0.9 | 3.5 | 0.00 | 0.00 | 0.00 | 82 | 1020.3 |
| 20260507083010 | 35 | 71 | 1.7 | 3.5 | 0.00 | 0.00 | 0.00 | 81 | 1020.2 |
| 20260507081510 | 36 | 71 | 0.9 | 3.5 | 0.00 | 0.00 | 0.00 | 79 | 1019.9 |
| 20260507080005 | 36 | 71 | 1.7 | 4.3 | 0.00 | 0.00 | 0.00 | 79 | 1019.8 |
| 20260507074507 | 37 | 71 | 0.9 | 7.0 | 0.00 | 0.00 | 0.00 | 79 | 1019.8 |
| 20260507073002 | 37 | 71 | 1.7 | 4.3 | 0.00 | 0.00 | 0.00 | 78 | 1019.6 |
| 20260507071500 | 37 | 71 | 2.6 | 7.0 | 0.00 | 0.00 | 0.00 | 78 | 1019.5 |
| 20260507070107 | 37 | 71 | 1.7 | 6.1 | 0.00 | 0.00 | 0.00 | 76 | 1019.4 |
| 20260507064558 | 37 | 71 | 0.9 | 4.3 | 0.00 | 0.00 | 0.00 | 74 | 1019.3 |
| 20260507063053 | 38 | 71 | 2.6 | 7.0 | 0.00 | 0.00 | 0.00 | 73 | 1019.3 |
| 20260507061550 | 39 | 70 | 2.6 | 8.7 | 0.00 | 0.00 | 0.00 | 71 | 1019.1 |
| 20260507060047 | 39 | 67 | 3.5 | 7.0 | 0.00 | 0.00 | 0.00 | 69 | 1018.8 |
| 20260507054606 | 39 | 67 | 3.5 | 7.8 | 0.00 | 0.00 | 0.00 | 69 | 1018.7 |
| 20260507053051 | 40 | 63 | 3.5 | 8.7 | 0.00 | 0.00 | 0.00 | 67 | 1018.5 |
| 20260507051549 | 41 | 61 | 3.5 | 7.0 | 0.00 | 0.00 | 0.00 | 53 | 1018.5 |
| 20260507050048 | 41 | 286 | 0.0 | 1.7 | 0.00 | 0.00 | 0.00 | 55 | 1018.3 |
| 20260507044546 | 43 | 286 | 0.0 | 0.0 | 0.00 | 0.00 | 0.00 | 52 | 1018.0 |
| 20260507043038 | 43 | 286 | 0.0 | 0.0 | 0.00 | 0.00 | 0.00 | 52 | 1017.9 |
| 20260507041542 | 44 | 286 | 0.0 | 0.0 | 0.00 | 0.00 | 0.00 | 51 | 1017.6 |
| 20260507040040 | 44 | 286 | 0.9 | 2.6 | 0.00 | 0.00 | 0.00 | 49 | 1017.3 |
| 20260507034533 | 46 | 286 | 0.0 | 0.0 | 0.00 | 0.03 | 0.00 | 45 | 1017.0 |
| 20260507033032 | 47 | 286 | 0.0 | 0.9 | 0.00 | 0.03 | 0.00 | 44 | 1016.9 |
| 20260507031530 | 48 | 286 | 0.0 | 1.7 | 0.00 | 0.03 | 0.00 | 42 | 1016.6 |
| 20260507030028 | 49 | 286 | 0.0 | 2.6 | 0.00 | 0.03 | 0.00 | 41 | 1016.2 |
| 20260507024532 | 50 | 286 | 0.9 | 5.2 | 0.00 | 0.04 | 0.00 | 39 | 1015.8 |
| 20260507023023 | 51 | 286 | 3.5 | 7.8 | 0.00 | 0.04 | 0.00 | 38 | 1015.6 |
| 20260507021529 | 52 | 288 | 5.2 | 11.3 | 0.00 | 0.04 | 0.00 | 38 | 1015.4 |
| 20260507020021 | 52 | 288 | 5.2 | 12.2 | 0.00 | 0.04 | 0.00 | 38 | 1015.0 |